createdAt,value
2022-09-10T00:01:31.898Z,20.53
2022-09-10T00:04:01.399Z,20.45
2022-09-10T00:06:30.184Z,20.39
2022-09-10T00:09:01.874Z,20.33
2022-09-10T00:11:32.046Z,20.26
2022-09-10T00:14:00.682Z,20.19
2022-09-10T00:16:29.745Z,20.13
2022-09-10T00:18:58.254Z,20.08
2022-09-10T00:21:26.628Z,20.04
2022-09-10T00:23:54.847Z,20.00
2022-09-10T00:26:25.846Z,19.95
2022-09-10T00:28:55.072Z,19.91
2022-09-10T00:31:24.558Z,19.89
2022-09-10T00:33:54.740Z,19.88
2022-09-10T00:36:24.422Z,19.82
2022-09-10T00:38:54.825Z,19.81
2022-09-10T00:41:25.909Z,19.80
2022-09-10T00:43:56.434Z,19.81
2022-09-10T00:46:37.019Z,19.80
2022-09-10T00:49:14.597Z,19.80
2022-09-10T00:51:44.721Z,19.78
2022-09-10T00:54:13.680Z,19.79
2022-09-10T00:56:43.572Z,19.79
2022-09-10T00:59:14.331Z,19.79
2022-09-10T01:01:43.534Z,19.79
2022-09-10T01:04:11.851Z,19.77
2022-09-10T01:06:41.847Z,19.79
2022-09-10T01:09:10.672Z,19.76
2022-09-10T01:12:05.023Z,19.78
2022-09-10T01:14:55.992Z,19.72
2022-09-10T01:17:32.240Z,19.72
2022-09-10T01:20:35.248Z,19.73
2022-09-10T01:23:29.655Z,19.78
2022-09-10T01:26:10.160Z,19.83
2022-09-10T01:28:44.864Z,19.84
2022-09-10T01:31:23.350Z,19.85
2022-09-10T01:33:58.877Z,19.86
2022-09-10T01:36:31.222Z,19.83
2022-09-10T01:38:59.261Z,19.89
2022-09-10T01:41:29.120Z,19.92
2022-09-10T01:43:59.299Z,19.94
2022-09-10T01:46:41.635Z,19.99
2022-09-10T01:49:30.934Z,20.03
2022-09-10T01:52:16.865Z,20.01
2022-09-10T01:54:56.377Z,20.07
2022-09-10T01:57:35.324Z,20.08
2022-09-10T02:00:09.571Z,20.15
2022-09-10T02:02:45.139Z,20.16
2022-09-10T02:05:14.967Z,20.20
2022-09-10T02:07:48.919Z,20.20
2022-09-10T02:10:17.462Z,20.24
2022-09-10T02:12:46.567Z,20.26
2022-09-10T02:15:18.778Z,20.33
2022-09-10T02:17:49.155Z,20.32
2022-09-10T02:20:19.234Z,20.31
2022-09-10T02:22:53.071Z,20.33
2022-09-10T02:25:21.112Z,20.36
2022-09-10T02:27:49.548Z,20.38
2022-09-10T02:30:20.211Z,20.41
2022-09-10T02:32:49.232Z,20.44
2022-09-10T02:35:17.539Z,20.45
2022-09-10T02:37:46.069Z,20.47
2022-09-10T02:40:14.576Z,20.56
2022-09-10T02:42:46.711Z,20.62
2022-09-10T02:45:15.049Z,20.49
2022-09-10T02:47:44.470Z,20.49
2022-09-10T02:50:12.608Z,20.50
2022-09-10T02:52:40.650Z,20.52
2022-09-10T02:55:09.477Z,20.51
2022-09-10T02:57:37.386Z,20.50
2022-09-10T03:00:06.460Z,20.52
2022-09-10T03:02:34.531Z,20.54
2022-09-10T03:05:05.338Z,20.54
2022-09-10T03:07:34.370Z,20.54
2022-09-10T03:10:02.698Z,20.55
2022-09-10T03:12:30.624Z,20.56
2022-09-10T03:14:59.067Z,20.57
2022-09-10T03:17:27.492Z,20.53
2022-09-10T03:19:55.541Z,20.52
2022-09-10T03:22:24.708Z,20.48
2022-09-10T03:24:52.818Z,20.43
2022-09-10T03:27:20.830Z,20.39
2022-09-10T03:29:48.896Z,20.35
2022-09-10T03:32:17.084Z,20.32
2022-09-10T03:34:45.203Z,20.28
2022-09-10T03:37:14.159Z,20.24
2022-09-10T03:39:44.592Z,20.22
2022-09-10T03:42:12.663Z,20.20
2022-09-10T03:44:41.050Z,20.22
2022-09-10T03:47:10.015Z,20.22
2022-09-10T03:49:39.927Z,20.21
2022-09-10T03:52:08.038Z,20.16
2022-09-10T03:54:37.311Z,20.14
2022-09-10T03:57:06.866Z,20.10
2022-09-10T03:59:35.244Z,20.11
2022-09-10T04:02:03.851Z,20.15
2022-09-10T04:04:32.291Z,20.17
2022-09-10T04:07:01.016Z,20.18
2022-09-10T04:09:28.885Z,20.19
2022-09-10T04:11:59.628Z,20.20
2022-09-10T04:14:29.937Z,20.17
2022-09-10T04:16:58.953Z,20.14
2022-09-10T04:19:27.808Z,20.13
2022-09-10T04:21:57.914Z,20.10
2022-09-10T04:24:26.036Z,20.06
2022-09-10T04:26:53.908Z,20.00
2022-09-10T04:29:23.290Z,19.95
2022-09-10T04:31:52.798Z,19.93
2022-09-10T04:34:22.686Z,19.91
2022-09-10T04:36:51.152Z,19.86
2022-09-10T04:39:19.404Z,19.81
2022-09-10T04:41:47.418Z,19.80
2022-09-10T04:44:17.217Z,19.79
2022-09-10T04:46:45.485Z,19.79
2022-09-10T04:49:15.231Z,19.80
2022-09-10T04:51:44.216Z,19.82
2022-09-10T04:54:14.463Z,19.86
2022-09-10T04:56:42.783Z,19.89
2022-09-10T04:59:11.573Z,19.92
2022-09-10T05:01:39.776Z,19.95
2022-09-10T05:04:07.686Z,19.99
2022-09-10T05:06:37.792Z,20.04
2022-09-10T05:09:06.480Z,20.10
2022-09-10T05:11:34.550Z,20.18
2022-09-10T05:14:03.002Z,20.24
2022-09-10T05:16:32.165Z,20.31
2022-09-10T05:19:00.515Z,20.39
2022-09-10T05:21:29.135Z,20.47
2022-09-10T05:23:58.626Z,20.55
2022-09-10T05:26:27.645Z,20.61
2022-09-10T05:28:59.703Z,20.65
2022-09-10T05:31:28.563Z,20.71
2022-09-10T05:33:56.856Z,20.77
2022-09-10T05:36:24.725Z,20.80
2022-09-10T05:38:55.297Z,20.82
2022-09-10T05:41:25.208Z,20.88
2022-09-10T05:43:54.895Z,20.92
2022-09-10T05:46:24.277Z,20.94
2022-09-10T05:48:54.021Z,20.94
2022-09-10T05:51:22.497Z,20.97
2022-09-10T05:53:50.631Z,20.97
2022-09-10T05:56:20.519Z,20.97
2022-09-10T05:58:50.213Z,21.00
2022-09-10T06:01:18.839Z,21.03
2022-09-10T06:03:47.350Z,21.08
2022-09-10T06:06:15.472Z,21.21
2022-09-10T06:08:44.227Z,21.32
2022-09-10T06:11:13.426Z,21.44
2022-09-10T06:13:42.386Z,21.57
2022-09-10T06:16:11.825Z,21.69
2022-09-10T06:18:41.117Z,21.79
2022-09-10T06:21:12.527Z,21.92
2022-09-10T06:23:42.881Z,22.06
2022-09-10T06:26:12.768Z,22.19
2022-09-10T06:28:41.223Z,22.31
2022-09-10T06:31:14.228Z,22.44
2022-09-10T06:33:42.826Z,22.58
2022-09-10T06:36:12.442Z,22.69
2022-09-10T06:38:41.624Z,22.80
2022-09-10T06:41:13.861Z,22.87
2022-09-10T06:43:43.232Z,22.96
2022-09-10T06:46:41.115Z,23.05
2022-09-10T06:49:04.653Z,23.16
2022-09-10T06:51:33.818Z,23.14
2022-09-10T06:54:02.823Z,23.18
2022-09-10T06:56:31.090Z,23.25
2022-09-10T06:59:02.361Z,23.41
2022-09-10T07:01:33.002Z,23.56
2022-09-10T07:04:02.878Z,23.67
2022-09-10T07:06:36.134Z,23.75
2022-09-10T07:09:05.335Z,23.90
2022-09-10T07:11:35.943Z,23.99
2022-09-10T07:14:08.883Z,24.06
2022-09-10T07:16:41.719Z,24.02
2022-09-10T07:19:09.796Z,24.01
2022-09-10T07:21:38.469Z,23.98
2022-09-10T07:24:07.452Z,24.03
2022-09-10T07:26:36.028Z,24.02
2022-09-10T07:29:05.198Z,24.09
2022-09-10T07:31:35.193Z,24.08
2022-09-10T07:34:05.719Z,24.09
2022-09-10T07:36:34.011Z,24.12
2022-09-10T07:39:03.817Z,24.15
2022-09-10T07:41:34.697Z,24.22
2022-09-10T07:44:03.588Z,24.16
2022-09-10T07:46:31.827Z,24.30
2022-09-10T07:49:01.889Z,24.47
2022-09-10T07:51:33.052Z,24.58
2022-09-10T07:54:01.221Z,24.68
2022-09-10T07:56:32.387Z,24.77
2022-09-10T07:59:02.774Z,24.96
2022-09-10T08:01:31.955Z,25.02
2022-09-10T08:04:00.421Z,24.85
2022-09-10T08:06:28.843Z,24.90
2022-09-10T08:09:00.007Z,24.93
2022-09-10T08:11:28.261Z,24.67
2022-09-10T08:13:57.124Z,24.59
2022-09-10T08:16:26.879Z,24.69
2022-09-10T08:18:57.977Z,24.90
2022-09-10T08:21:26.843Z,25.00
2022-09-10T08:23:55.928Z,25.19
2022-09-10T08:26:27.435Z,25.37
2022-09-10T08:28:57.853Z,25.49
2022-09-10T08:31:27.209Z,25.74
2022-09-10T08:33:56.994Z,25.81
2022-09-10T08:36:25.614Z,25.87
2022-09-10T08:38:59.839Z,25.94
2022-09-10T08:41:46.980Z,26.08
2022-09-10T08:44:27.705Z,26.25
2022-09-10T08:47:01.079Z,26.22
2022-09-10T08:49:34.914Z,26.25
2022-09-10T08:52:08.961Z,26.25
2022-09-10T08:54:41.572Z,26.07
2022-09-10T08:57:21.491Z,25.88
2022-09-10T08:59:53.488Z,25.74
2022-09-10T09:02:47.821Z,25.83
2022-09-10T09:05:19.408Z,26.05
2022-09-10T09:07:49.607Z,26.38
2022-09-10T09:10:31.558Z,26.55
2022-09-10T09:13:26.288Z,26.58
2022-09-10T09:16:05.717Z,26.75
2022-09-10T09:18:48.236Z,26.56
2022-09-10T09:21:17.951Z,26.46
2022-09-10T09:24:12.242Z,26.26
2022-09-10T09:26:46.441Z,26.20
2022-09-10T09:29:20.336Z,26.45
2022-09-10T09:31:53.840Z,26.91
2022-09-10T09:34:26.228Z,27.16
2022-09-10T09:36:57.567Z,27.42
2022-09-10T09:39:31.250Z,27.45
2022-09-10T09:42:05.022Z,27.58
2022-09-10T09:44:39.884Z,27.59
2022-09-10T09:47:08.882Z,27.52
2022-09-10T09:49:38.628Z,27.50
2022-09-10T09:52:19.420Z,27.49
2022-09-10T09:57:42.836Z,27.24
2022-09-10T10:00:36.337Z,27.37
2022-09-10T10:03:12.785Z,27.63
2022-09-10T10:05:40.683Z,27.81
2022-09-10T10:08:27.569Z,27.84
2022-09-10T10:10:55.800Z,27.65
2022-09-10T10:13:25.101Z,27.46
2022-09-10T10:15:54.304Z,27.33
2022-09-10T10:18:31.699Z,27.31
2022-09-10T10:21:18.836Z,27.46
2022-09-10T10:23:48.161Z,27.39
2022-09-10T10:26:27.622Z,27.55
2022-09-10T10:28:59.802Z,27.67
2022-09-10T10:31:42.423Z,27.89
2022-09-10T10:34:32.432Z,27.74
2022-09-10T10:37:09.104Z,27.77
2022-09-10T10:40:05.127Z,27.85
2022-09-10T10:42:38.588Z,28.08
2022-09-10T10:45:24.595Z,28.12
2022-09-10T10:47:57.114Z,28.17
2022-09-10T10:50:35.052Z,28.22
2022-09-10T10:53:25.541Z,28.36
2022-09-10T10:56:02.837Z,28.15
2022-09-10T10:58:54.294Z,28.39
2022-09-10T11:01:25.583Z,28.57
2022-09-10T11:04:02.907Z,28.74
2022-09-10T11:06:38.313Z,29.03
2022-09-10T11:09:13.546Z,28.99
2022-09-10T11:11:49.392Z,29.02
2022-09-10T11:14:23.096Z,28.83
2022-09-10T11:16:58.529Z,28.87
2022-09-10T11:19:36.905Z,28.97
2022-09-10T11:22:10.602Z,29.17
2022-09-10T11:24:44.585Z,29.48
2022-09-10T11:27:16.634Z,29.69
2022-09-10T11:29:52.820Z,29.80
2022-09-10T11:32:28.330Z,29.66
2022-09-10T11:35:05.659Z,29.36
2022-09-10T11:37:48.223Z,29.25
2022-09-10T11:40:24.351Z,29.36
2022-09-10T11:42:56.483Z,29.24
2022-09-10T11:45:36.195Z,29.05
2022-09-10T11:48:12.457Z,28.96
2022-09-10T11:50:49.743Z,28.96
2022-09-10T11:53:21.749Z,28.82
2022-09-10T11:56:14.955Z,28.84
2022-09-10T11:58:55.636Z,28.91
2022-09-10T12:01:41.487Z,28.95
2022-09-10T12:04:39.862Z,28.79
2022-09-10T12:07:21.073Z,28.75
2022-09-10T12:10:01.609Z,28.77
2022-09-10T12:12:39.279Z,28.68
2022-09-10T12:15:10.557Z,28.62
2022-09-10T12:17:43.068Z,28.44
2022-09-10T12:20:18.993Z,28.43
2022-09-10T12:22:53.844Z,28.34
2022-09-10T12:25:33.648Z,28.45
2022-09-10T12:28:05.461Z,28.38
2022-09-10T12:31:02.877Z,28.32
2022-09-10T12:34:12.332Z,28.38
2022-09-10T12:37:17.844Z,28.25
2022-09-10T12:39:47.278Z,28.21
2022-09-10T12:42:28.625Z,28.19
2022-09-10T12:44:56.896Z,28.09
2022-09-10T12:47:50.209Z,28.09
2022-09-10T12:50:23.641Z,28.22
2022-09-10T12:53:39.720Z,28.13
2022-09-10T12:56:58.075Z,28.06
2022-09-10T13:00:01.934Z,28.12
2022-09-10T13:02:33.793Z,28.26
2022-09-10T13:05:06.218Z,28.39
2022-09-10T13:07:40.219Z,28.51
2022-09-10T13:10:22.027Z,28.70
2022-09-10T13:12:55.654Z,28.92
2022-09-10T13:15:26.520Z,29.15
2022-09-10T13:18:24.611Z,29.33
2022-09-10T13:20:53.240Z,29.61
2022-09-10T13:23:23.798Z,29.76
2022-09-10T13:25:52.722Z,29.94
2022-09-10T13:29:01.266Z,30.12
2022-09-10T13:31:33.287Z,30.17
2022-09-10T13:34:29.052Z,30.26
2022-09-10T13:37:27.996Z,30.40
2022-09-10T13:40:22.405Z,30.77
2022-09-10T13:43:13.810Z,31.14
2022-09-10T13:45:47.754Z,31.39
2022-09-10T13:48:22.011Z,31.51
2022-09-10T13:50:57.666Z,31.48
2022-09-10T13:53:29.278Z,31.64
2022-09-10T13:55:59.813Z,31.94
2022-09-10T13:58:33.322Z,32.13
2022-09-10T14:01:03.332Z,32.30
2022-09-10T14:03:34.550Z,32.50
2022-09-10T14:06:05.121Z,32.42
2022-09-10T14:08:38.435Z,32.69
2022-09-10T14:11:10.342Z,32.92
2022-09-10T14:13:43.142Z,32.90
2022-09-10T14:16:13.700Z,32.79
2022-09-10T14:18:46.726Z,32.85
2022-09-10T14:21:15.987Z,32.77
2022-09-10T14:23:45.858Z,32.69
2022-09-10T14:26:23.251Z,32.14
2022-09-10T14:28:54.487Z,31.89
2022-09-10T14:31:35.183Z,31.83
2022-09-10T14:34:36.090Z,31.56
2022-09-10T14:37:37.781Z,30.96
2022-09-10T14:40:15.851Z,30.34
2022-09-10T14:42:43.754Z,30.07
2022-09-10T14:45:41.197Z,29.93
2022-09-10T14:48:29.236Z,29.78
2022-09-10T14:51:18.459Z,29.60
2022-09-10T14:53:50.592Z,29.43
2022-09-10T14:56:26.349Z,29.22
2022-09-10T14:58:59.661Z,29.11
2022-09-10T15:01:28.606Z,29.11
2022-09-10T15:03:57.196Z,29.26
2022-09-10T15:06:27.033Z,29.18
2022-09-10T15:08:56.700Z,29.02
2022-09-10T15:11:27.156Z,28.92
2022-09-10T15:13:56.787Z,28.59
2022-09-10T15:16:24.720Z,28.47
2022-09-10T15:18:52.613Z,28.35
2022-09-10T15:21:21.170Z,28.21
2022-09-10T15:23:50.405Z,28.23
2022-09-10T15:26:18.274Z,28.06
2022-09-10T15:28:46.398Z,27.96
2022-09-10T15:31:14.310Z,27.93
2022-09-10T15:33:43.566Z,27.88
2022-09-10T15:36:12.026Z,27.86
2022-09-10T15:38:39.960Z,27.86
2022-09-10T15:41:12.923Z,27.74
2022-09-10T15:43:43.727Z,27.60
2022-09-10T15:46:12.954Z,27.53
2022-09-10T15:48:41.710Z,27.47
2022-09-10T15:51:14.804Z,27.44
2022-09-10T15:53:43.781Z,27.35
2022-09-10T15:56:12.992Z,27.31
2022-09-10T15:58:41.302Z,27.30
2022-09-10T16:01:12.482Z,27.31
2022-09-10T16:03:46.553Z,27.30
2022-09-10T16:06:15.423Z,27.24
2022-09-10T16:08:47.899Z,27.20
2022-09-10T16:11:18.089Z,27.16
2022-09-10T16:13:46.775Z,27.10
2022-09-10T16:16:18.998Z,27.07
2022-09-10T16:18:48.112Z,27.08
2022-09-10T16:21:18.554Z,27.18
2022-09-10T16:23:48.086Z,27.49
2022-09-10T16:26:20.053Z,27.73
2022-09-10T16:28:51.621Z,27.85
2022-09-10T16:31:22.566Z,27.78
2022-09-10T16:33:54.652Z,27.67
2022-09-10T16:36:24.996Z,27.58
2022-09-10T16:38:54.773Z,27.46
2022-09-10T16:41:25.352Z,27.35
2022-09-10T16:43:55.075Z,27.26
2022-09-10T16:46:23.370Z,27.04
2022-09-10T16:48:53.736Z,26.89
2022-09-10T16:51:24.375Z,26.75
2022-09-10T16:53:57.433Z,26.65
2022-09-10T16:56:27.071Z,26.51
2022-09-10T16:58:54.934Z,26.40
2022-09-10T17:01:23.324Z,26.31
2022-09-10T17:03:52.157Z,26.25
2022-09-10T17:06:25.125Z,26.13
2022-09-10T17:08:57.138Z,26.02
2022-09-10T17:11:28.258Z,25.94
2022-09-10T17:13:57.659Z,25.83
2022-09-10T17:16:28.081Z,25.74
2022-09-10T17:18:58.764Z,25.64
2022-09-10T17:21:27.057Z,25.56
2022-09-10T17:23:56.043Z,25.43
2022-09-10T17:26:25.081Z,25.31
2022-09-10T17:28:56.076Z,25.19
2022-09-10T17:31:24.999Z,25.03
2022-09-10T17:33:53.020Z,24.89
2022-09-10T17:36:21.147Z,24.78
2022-09-10T17:38:49.831Z,24.70
2022-09-10T17:41:19.302Z,24.62
2022-09-10T17:43:47.537Z,24.53
2022-09-10T17:46:19.114Z,24.39
2022-09-10T17:48:47.875Z,24.29
2022-09-10T17:51:18.187Z,24.24
2022-09-10T17:53:46.477Z,24.16
2022-09-10T17:56:16.790Z,24.11
2022-09-10T17:58:44.938Z,24.07
2022-09-10T18:01:22.615Z,24.02
2022-09-10T18:03:53.240Z,23.97
2022-09-10T18:06:22.506Z,23.91
2022-09-10T18:08:51.538Z,23.88
2022-09-10T18:11:21.800Z,23.87
2022-09-10T18:13:52.064Z,23.86
2022-09-10T18:16:22.457Z,23.78
2022-09-10T18:18:55.468Z,23.75
2022-09-10T18:21:26.062Z,23.74
2022-09-10T18:23:55.540Z,23.69
2022-09-10T18:26:26.028Z,23.68
2022-09-10T18:28:57.016Z,23.66
2022-09-10T18:31:25.652Z,23.65
2022-09-10T18:33:55.740Z,23.62
2022-09-10T18:36:25.366Z,23.60
2022-09-10T18:38:53.908Z,23.56
2022-09-10T18:41:24.686Z,23.55
2022-09-10T18:43:54.296Z,23.52
2022-09-10T18:46:23.525Z,23.48
2022-09-10T18:48:52.153Z,23.46
2022-09-10T18:51:23.508Z,23.42
2022-09-10T18:53:54.037Z,23.41
2022-09-10T18:56:24.170Z,23.40
2022-09-10T18:58:55.728Z,23.37
2022-09-10T19:01:25.371Z,23.37
2022-09-10T19:03:54.203Z,23.36
2022-09-10T19:06:25.517Z,23.34
2022-09-10T19:08:55.488Z,23.33
2022-09-10T19:11:25.482Z,23.28
2022-09-10T19:13:55.812Z,23.26
2022-09-10T19:16:26.691Z,23.26
2022-09-10T19:18:57.089Z,23.24
2022-09-10T19:21:28.802Z,23.23
2022-09-10T19:23:59.489Z,23.20
2022-09-10T19:26:29.100Z,23.20
2022-09-10T19:28:58.547Z,23.19
2022-09-10T19:31:28.362Z,23.18
2022-09-10T19:33:57.345Z,23.18
2022-09-10T19:36:30.289Z,23.18
2022-09-10T19:38:59.503Z,23.17
2022-09-10T19:41:27.754Z,23.14
2022-09-10T19:43:56.208Z,23.13
2022-09-10T19:46:28.218Z,23.09
2022-09-10T19:48:59.292Z,23.09
2022-09-10T19:51:31.130Z,23.09
2022-09-10T19:54:00.343Z,23.08
2022-09-10T19:56:31.195Z,23.08
2022-09-10T19:59:00.224Z,23.04
2022-09-10T20:01:31.435Z,23.02
2022-09-10T20:04:01.769Z,23.01
2022-09-10T20:06:31.421Z,22.99
2022-09-10T20:08:59.788Z,22.96
2022-09-10T20:11:29.919Z,22.91
2022-09-10T20:13:59.985Z,22.88
2022-09-10T20:16:28.839Z,22.86
2022-09-10T20:18:56.921Z,22.84
2022-09-10T20:21:28.256Z,22.81
2022-09-10T20:23:57.766Z,22.76
2022-09-10T20:26:27.122Z,22.73
2022-09-10T20:28:57.196Z,22.70
2022-09-10T20:31:27.055Z,22.65
2022-09-10T20:33:57.146Z,22.61
2022-09-10T20:36:26.617Z,22.57
2022-09-10T20:38:55.856Z,22.53
2022-09-10T20:41:30.029Z,22.48
2022-09-10T20:44:00.579Z,22.45
2022-09-10T20:46:31.277Z,22.41
2022-09-10T20:49:02.958Z,22.34
2022-09-10T20:51:32.771Z,22.30
2022-09-10T20:54:00.989Z,22.26
2022-09-10T20:56:30.255Z,22.24
2022-09-10T20:58:58.483Z,22.21
2022-09-10T21:01:28.647Z,22.19
2022-09-10T21:03:59.291Z,22.15
2022-09-10T21:06:29.160Z,22.11
2022-09-10T21:08:57.433Z,22.07
2022-09-10T21:11:27.327Z,22.02
2022-09-10T21:13:58.806Z,21.92
2022-09-10T21:16:28.464Z,21.86
2022-09-10T21:18:58.787Z,21.83
2022-09-10T21:21:28.438Z,21.83
2022-09-10T21:23:58.014Z,21.79
2022-09-10T21:26:28.102Z,21.76
2022-09-10T21:28:58.939Z,21.73
2022-09-10T21:31:28.250Z,21.69
2022-09-10T21:34:02.666Z,21.67
2022-09-10T21:36:32.712Z,21.66
2022-09-10T21:39:02.647Z,21.62
2022-09-10T21:41:32.644Z,21.58
2022-09-10T21:44:04.076Z,21.53
2022-09-10T21:46:32.660Z,21.46
2022-09-10T21:49:01.060Z,21.37
2022-09-10T21:51:29.099Z,21.33
2022-09-10T21:53:58.162Z,21.27
2022-09-10T21:56:29.475Z,21.19
2022-09-10T21:58:59.828Z,21.15
2022-09-10T22:01:31.418Z,21.12
2022-09-10T22:04:01.479Z,21.10
2022-09-10T22:06:30.787Z,21.06
2022-09-10T22:09:00.421Z,21.02
2022-09-10T22:11:30.481Z,20.95
2022-09-10T22:14:01.059Z,20.89
2022-09-10T22:16:32.021Z,20.87
2022-09-10T22:19:02.263Z,20.85
2022-09-10T22:21:31.017Z,20.84
2022-09-10T22:23:59.214Z,20.81
2022-09-10T22:26:29.052Z,20.81
2022-09-10T22:28:59.791Z,20.79
2022-09-10T22:31:31.229Z,20.74
2022-09-10T22:34:01.638Z,20.70
2022-09-10T22:36:30.955Z,20.67
2022-09-10T22:39:01.407Z,20.63
2022-09-10T22:41:31.577Z,20.60
2022-09-10T22:44:00.053Z,20.57
2022-09-10T22:46:28.748Z,20.54
2022-09-10T22:48:58.695Z,20.50
2022-09-10T22:51:28.815Z,20.42
2022-09-10T22:53:58.231Z,20.32
2022-09-10T22:56:28.060Z,20.21
2022-09-10T22:58:57.344Z,20.14
2022-09-10T23:01:27.389Z,20.10
2022-09-10T23:03:59.259Z,20.07
2022-09-10T23:06:29.055Z,20.06
2022-09-10T23:08:59.268Z,20.08
2022-09-10T23:11:28.988Z,20.10
2022-09-10T23:14:01.428Z,20.12
2022-09-10T23:16:31.089Z,20.13
2022-09-10T23:19:02.506Z,20.12
2022-09-10T23:21:32.115Z,20.07
2022-09-10T23:24:01.394Z,20.05
2022-09-10T23:26:30.282Z,20.04
2022-09-10T23:29:00.368Z,20.00
2022-09-10T23:31:30.100Z,19.98
2022-09-10T23:34:01.390Z,19.89
2022-09-10T23:36:31.339Z,19.82
2022-09-10T23:38:59.938Z,19.76
2022-09-10T23:41:29.792Z,19.77
2022-09-10T23:43:58.258Z,19.77
2022-09-10T23:46:26.709Z,19.78
2022-09-10T23:48:54.943Z,19.78
2022-09-10T23:51:24.903Z,19.77
2022-09-10T23:53:54.649Z,19.75
2022-09-10T23:56:25.614Z,19.73
2022-09-10T23:58:53.926Z,19.71
